Bremond, Texas
Current Conditions -  °F | °C
As of 3:15 AM on Monday 24 Nov 2014 (Local Time) from KLHB Reporting Station
Clear Clear  
Wind Chill: 45°   Ceiling: Unl
Heat Index: 48°   Visibility: 10mi
Dew Point: 39°   Wind: 8mph
Humidity: 71%   Direction: 320°NW
Pressure: 29.92"   Gusts: NA
Location:  31.17°N, 96.68°W
Report Text: KLHB 240915Z AUTO 32007KT 10SM CLR 09/04 A2992 RMK AO2 T00910040
Loading
Personal Weather Stations






























Interactive Weather Map New forecast layout! Learn more

10-Day Weather Forecast

Advertisements
Track Severe Weather on mobile